Prenter, West Virginia
Current Conditions -  °F | °C
As of 9:54 AM on Friday 31 Oct 2014 (Local Time) from KCRW Reporting Station
Haze Haze  
Wind Chill: 37°   Ceiling: 11000
Heat Index: 37°   Visibility: 6mi
Dew Point: 36°   Wind: 0mph
Humidity: 96%   Direction: NA
Pressure: 29.98"   Gusts: NA
Location:  38.0789°N, 81.6756°W
Report Text: KCRW 311354Z 00000KT 6SM BR FEW001 SCT050 BKN110 BKN300 03/02 A2998 RMK AO2 SLP155 VIRGA DNS VLY FG T00280022
Loading
Personal Weather Stations






























Interactive Weather Map
Tropical Storm Tracking
New forecast layout! Learn more

10-Day Weather Forecast

Advertisements
Track Severe Weather on mobile